AirNav   Pilot Hours Calculator
 
 1517 users online  

7FL4 Haller Airpark
Green Cove Springs, Florida, USA

GOING TO GREEN COVE SPRINGS?


FAA INFORMATION EFFECTIVE 20 MAY 2021

Location

FAA Identifier: 7FL4
Lat/Long: 29-54-10.8740N 081-41-09.3220W
29-54.181233N 081-41.155367W
29.9030206,-81.6859228
(estimated)
Elevation: 75 ft. / 22.9 m (surveyed)
Variation: 03W (1985)
From city: 5 miles S of GREEN COVE SPRINGS, FL
Time zone: UTC -4 (UTC -5 during Standard Time)
Zip code: 32043

Airport Operations

Airport use: Private use. Permission required prior to landing
Activation date: 07/1979
Control tower: no
ARTCC: JACKSONVILLE CENTER
FSS: GAINESVILLE FLIGHT SERVICE STATION
Attendance: CONTINUOUS
Wind indicator: yes
Segmented circle: no

Airport Communications

WX AWOS-3 at 28J (15 nm S): 119.925 (386-312-2212)
WX AWOS-3PT at SGJ (18 nm E): 119.625 (904-824-7084)
WX AWOS-3 at 42J (19 nm W): 124.275 (352-473-8273)
WX AWOS-3 at NIP (20 nm N): 119.275

Nearby radio navigation aids

VOR radial/distance  VOR name  Freq  Var
SGJr266/18.8ST AUGUSTINE VOR/DME109.4006W
VQQr153/(21.4)CECIL VOR117.9003W
CRGr202/27.7CRAIG VORTAC114.5003W
GNVr072/33.1GATORS VORTAC116.2004W

 
NDB name  Hdg/Dist  Freq  Var  ID
REYNOLDS208/4.133807WRYD .-. -.-- -..

Airport Services

Runway Information

Runway 18/36

Dimensions: 2600 x 72 ft. / 792 x 22 m
Surface: turf
RUNWAY 18  RUNWAY 36
Traffic pattern: leftleft

Airport Ownership and Management from official FAA records

Ownership: Privately-owned
Owner: T&G AERO INC.
5289 AIRPARK LOOP WEST
GREEN COVE SPRINGS, FL 32043
Phone (904) 874-3303
Manager: DON YOAKLEY
5529 MILLIE WAY
GREEN COVE SPRINGS, FL 32043
Phone 904-535-3233

Airport Operational Statistics

Aircraft based on the field: 46
Single engine airplanes: 43
Multi engine airplanes: 1
Ultralights: 2
    

Additional Remarks

660 FT OVRN N & S RWY END.
FOR CD CTC JACKSONVILLE APCH AT 904-741-0284.
OVHD 360 PAT AVBL WHEN STD ACFT INTVL ENSURED.
RDO CTL MODEL ACFT OPS S OVRN.
NON RDO ACFT OPS & WILDLIFE INVOF ARPT.
LOW LVL FLT OVR HOUSES NA.

Instrument Procedures

There are no published instrument procedures at 7FL4.

Some nearby airports with instrument procedures:

28J - Palatka Municipal Airport - Lt. Kay Larkin Field (15 nm S)
KSGJ - Northeast Florida Regional Airport (18 nm E)
42J - Keystone Heights Airport (19 nm W)
KNIP - Jacksonville Naval Air Station (Towers Field) (20 nm N)
KVQQ - Cecil Airport (21 nm NW)
 
Loc | Ops | Rwys | IFR | FBO | Links
Com | Nav | Svcs | Stats | Notes
Area around 7FL4 (Haller Airpark)
 
Road maps at: MapQuest Bing Google
 
Aerial photo
WARNING: Photo may not be current or correct
Aerial photo of 7FL4 (Haller Airpark)
Photo by Dave Dollarhide
Photo taken 01-Sep-2005
looking north to south

Do you have a better or more recent aerial photo of Haller Airpark that you would like to share? If so, please send us your photo.

 
Sectional chart

 
Airport distance calculator
Flying to Haller Airpark? Find the distance to fly.

From to 7FL4

Sunrise and sunset
Times for 16-Jun-2021
 Local
(UTC-4)
 Zulu
(UTC)
Morning civil twilight05:5909:59
Sunrise06:2710:27
Sunset20:2800:28
Evening civil twilight20:5600:56

Current date and time
Zulu (UTC)  16-Jun-2021 18:09:15
Local (UTC-4)  16-Jun-2021 14:09:15
 
METAR
K28J 
15nm S 
161755Z AUTO 26008G14KT 10SM CLR 29/22 A2996 RMK AO2
KNIP 
19nm N 
161753Z 26016KT 10SM SCT029 BKN070 OVC100 31/23 A2996 RMK AO2 SLP141 T2 SET T03060228 10306 20239 58005
K42J 
19nm W 
161755Z AUTO 22010G15KT 8SM FEW031 FEW036 SCT060 30/25 A2996 RMK A01 TSNO
KSGJ 
20nm E 
161756Z 24009KT 10SM BKN031 31/24 A2996 RMK AO2 SLP145 T03060239 10311 20233 58007
KVQQ 
21nm NW 
161750Z 28012KT 10SM BKN026 31/24 A2996
KHEG 
23nm N 
161755Z AUTO 23009G16KT 5SM HZ SCT065 SCT075 29/23 A2998 RMK AO2
KCRG 
27nm N 
161753Z 25013G21KT 10SM FEW027 SCT070 31/23 A2995 RMK AO2 SLP142 T03060228 10311 20261 58006
TAF
KNIP 
19nm N 
1615/1715 24012KT 9999 SCT021 BKN150 BKN250 QNH2993INS FM161800 26010KT 9999 VCTS SCT040CB BKN070 BKN150 BKN250 QNH2988INS TEMPO 1619/1700 VRB20G40KT 4800 TSRA FEW010 BKN035CB BKN100 OVC150 FM170200 VRB06KT 9999 VCSH BKN035 BKN120 BKN250 QNH2992INS FM171200 21008KT 9999 FEW020 SCT040 SCT100 BKN250 QNH2996INS T30/1620Z T23/1710Z FN20077
KSGJ 
20nm E 
161720Z 1618/1718 23011G17KT P6SM VCTS BKN025CB BKN060 TEMPO 1622/1702 VRB15G25KT 4SM TSRA BR BKN030CB FM170200 23008KT P6SM VCTS FEW040CB SCT070 BKN250 FM170800 25007KT P6SM BKN250
KVQQ 
21nm NW 
161720Z 1618/1718 27011KT P6SM VCTS BKN025CB BKN120 TEMPO 1621/1701 VRB15G25KT 4SM TSRA BR FM170200 VRB04KT P6SM FEW050 SCT080 BKN250 FM171200 25006KT P6SM BKN250
NOTAMs
Click for the latest NOTAMs
NOTAMs are issued by the DoD/FAA and will open in a separate window not controlled by AirNav.

 

 
 

Would you like to see your business listed on this page?

 If your business provides an interesting product or service to pilots, flight crews, aircraft, or users of the Haller Airpark, you should consider listing it here.  To start the listing process, click on the button below
 
Add a business
 

Other Pages about Haller Airpark

Update a link
 
Copyright © AirNav, LLC. All rights reserved. Privacy Policy  Contact